Yamato — JD2252 — position and weather

sailwx.info

Track history (hours):
 
Tides and Currents Weather Stations Pressure Air Temp Water Temp Dewpoint Dewpoint Depression Visibility Wind Speed Wind Dir Waves Ship Positions

Yamato

Last reported at 2014-Nov-23 08:34 UTC. Time now 2014-Nov-23 08:40 UTC.
Position N 35°27' E 139°40'.

Length 43 m; draft 3.6 m.

Type: Tug. MMSI: 431101141.

Date/timePositionNaut miles runAvg speedWind from/ knotsBaromVisibWave heightAir tempDewpointWater temp
2014-Nov-23 08:34N 35°27' E 139°40'0 0.0
2014-Nov-23 07:34N 35°27' E 139°40'1 1.0
2014-Nov-23 06:34N 35°27' E 139°41'1 1.1
2014-Nov-23 05:34N 35°28' E 139°41'1 1.4
2014-Nov-23 04:34N 35°27' E 139°40'0 0.0
2014-Nov-23 03:33N 35°27' E 139°40'0 0.0
2014-Nov-23 02:34N 35°27' E 139°40'0 0.0
2014-Nov-23 01:33N 35°27' E 139°40'2 2.1
2014-Nov-23 00:34N 35°29' E 139°42'2 2.3
2014-Nov-22 23:33N 35°30' E 139°44'3 3.2
2014-Nov-22 22:34N 35°27' E 139°42'2 1.9
2014-Nov-22 21:34N 35°27' E 139°40'0 0.0
2014-Nov-22 20:34N 35°27' E 139°40'0 0.0
2014-Nov-22 19:34N 35°27' E 139°40'0 0.0
2014-Nov-22 18:34N 35°27' E 139°40'0 0.0
2014-Nov-22 17:34N 35°27' E 139°40'0 0.0
2014-Nov-22 16:34N 35°27' E 139°40'0 0.0
2014-Nov-22 15:34N 35°27' E 139°40'0 0.0
2014-Nov-22 14:34N 35°27' E 139°40'0 0.0
2014-Nov-22 13:34N 35°27' E 139°40'0 0.0
2014-Nov-22 12:34N 35°27' E 139°40'0 0.0
2014-Nov-22 11:33N 35°27' E 139°40'0 0.0
2014-Nov-22 10:33N 35°27' E 139°40'0 0.0
2014-Nov-22 09:34N 35°27' E 139°40'0 0.3
2014-Nov-22 08:34N 35°27' E 139°40'3 2.5
2014-Nov-22 07:33N 35°25' E 139°42'1 1.2
2014-Nov-22 06:34N 35°25' E 139°41'1 0.8
2014-Nov-22 05:34N 35°25' E 139°42'1 0.5
2014-Nov-22 04:33N 35°25' E 139°41'1 1.1
2014-Nov-22 03:33N 35°25' E 139°42'1 1.1
2014-Nov-22 02:33N 35°26' E 139°42'0 0.0
2014-Nov-22 01:34N 35°26' E 139°42'2 1.6
2014-Nov-22 00:34N 35°27' E 139°43'2 2.0
2014-Nov-21 23:34N 35°29' E 139°43'3 2.8
2014-Nov-21 22:33N 35°26' E 139°43'2 1.7
2014-Nov-21 21:34N 35°26' E 139°41'1 1.1
2014-Nov-21 20:34N 35°27' E 139°40'0 0.0
2014-Nov-21 19:34N 35°27' E 139°40'0 0.0
2014-Nov-21 18:34N 35°27' E 139°40'0 0.0
2014-Nov-21 17:34N 35°27' E 139°40'0 0.0
2014-Nov-21 16:33N 35°27' E 139°40'0 0.0
2014-Nov-21 15:34N 35°27' E 139°40'0 0.0
2014-Nov-21 14:34N 35°27' E 139°40'0 0.0
2014-Nov-21 13:34N 35°27' E 139°40'0 0.0
2014-Nov-21 12:33N 35°27' E 139°40'0 0.0
2014-Nov-21 11:33N 35°27' E 139°40'0 0.0
2014-Nov-21 10:34N 35°27' E 139°40'0 0.0
2014-Nov-21 09:33N 35°27' E 139°40'0 0.0
2014-Nov-21 08:33N 35°27' E 139°40'1 0.9
2014-Nov-21 07:34N 35°27' E 139°41'1 0.8
2014-Nov-21 06:33N 35°28' E 139°41'2 1.8
2014-Nov-21 05:33N 35°26' E 139°41'1 1.3
2014-Nov-21 04:33N 35°28' E 139°40'0 0.0
2014-Nov-21 03:34N 35°28' E 139°40'2 1.7
2014-Nov-21 02:34N 35°26' E 139°42'4 3.6
2014-Nov-21 01:33N 35°24' E 139°38'0 0.3
2014-Nov-21 00:34N 35°24' E 139°39'3 3.4
2014-Nov-20 23:34N 35°27' E 139°41'1 0.9
2014-Nov-20 22:34N 35°26' E 139°42'2 1.8
2014-Nov-20 21:34N 35°27' E 139°40'0 0.1
2014-Nov-20 20:34N 35°27' E 139°40'0 0.0
2014-Nov-20 19:33N 35°27' E 139°40'0 0.0
2014-Nov-20 18:34N 35°27' E 139°40'0 0.0
2014-Nov-20 17:34N 35°27' E 139°40'0 0.0
2014-Nov-20 16:33N 35°27' E 139°40'0 0.0
2014-Nov-20 15:34N 35°27' E 139°40'0 0.0
2014-Nov-20 14:34N 35°27' E 139°40'0 0.0
2014-Nov-20 13:33N 35°27' E 139°40'0 0.0
2014-Nov-20 12:34N 35°27' E 139°40'1 0.6
2014-Nov-20 11:34N 35°27' E 139°39'3 2.8
2014-Nov-20 10:34N 35°27' E 139°42'2 2.4
2014-Nov-20 09:34N 35°27' E 139°39'0 0.0
2014-Nov-20 08:34N 35°27' E 139°39'0 0.0
2014-Nov-20 07:34N 35°27' E 139°39'3 2.6
2014-Nov-20 06:33N 35°29' E 139°42'4 4.0
2014-Nov-20 05:34N 35°31' E 139°46'1 1.4
2014-Nov-20 04:33N 35°30' E 139°47'1 0.6
2014-Nov-20 03:33N 35°29' E 139°47'0 0.0
2014-Nov-20 02:26N 35°29' E 139°47'2 1.8
2014-Nov-20 01:33N 35°28' E 139°48'4 3.5
2014-Nov-20 00:33N 35°31' E 139°46'7 1.1
2014-Nov-19 18:16N 35°27' E 139°40'0 0.0
2014-Nov-19 17:34N 35°27' E 139°40'0 0.0
2014-Nov-19 16:34N 35°27' E 139°40'0 0.0
2014-Nov-19 15:33N 35°27' E 139°40'0 0.0
2014-Nov-19 14:34N 35°27' E 139°40'0 0.0
2014-Nov-19 13:34N 35°27' E 139°40'0 0.0
2014-Nov-19 12:34N 35°27' E 139°40'0 0.0
2014-Nov-19 11:34N 35°27' E 139°40'0 0.0
2014-Nov-19 10:34N 35°27' E 139°40'0 0.0
2014-Nov-19 09:34N 35°27' E 139°40'0 0.0
2014-Nov-19 08:33N 35°27' E 139°40'0 0.0
2014-Nov-19 07:33N 35°27' E 139°40'0 0.0
2014-Nov-19 06:33N 35°27' E 139°40'0 0.0
2014-Nov-19 05:34N 35°27' E 139°40'0 0.0
2014-Nov-19 04:33N 35°27' E 139°40'0 0.0
2014-Nov-19 03:33N 35°27' E 139°40'0 0.0
2014-Nov-19 02:34N 35°27' E 139°40'0 0.0
2014-Nov-19 01:34N 35°27' E 139°40'0 0.0
2014-Nov-19 00:34N 35°27' E 139°40'0 0.0
2014-Nov-18 23:34N 35°27' E 139°40'3 3.4
2014-Nov-18 22:33N 35°29' E 139°43'2 2.4
2014-Nov-18 21:33N 35°27' E 139°43'0 0.2
2014-Nov-18 20:33N 35°27' E 139°43'1 1.4
2014-Nov-18 19:34N 35°28' E 139°41'1 0.6
2014-Nov-18 18:34N 35°28' E 139°42'0 0.0
2014-Nov-18 17:34N 35°28' E 139°42'0 0.0
2014-Nov-18 16:33N 35°28' E 139°42'0 0.0
2014-Nov-18 15:33N 35°28' E 139°42'0 0.0
2014-Nov-18 14:33N 35°28' E 139°42'0 0.0
2014-Nov-18 13:34N 35°28' E 139°42'0 0.0
2014-Nov-18 12:34N 35°28' E 139°42'2 1.9
2014-Nov-18 11:33N 35°29' E 139°43'3 2.8
2014-Nov-18 10:34N 35°28' E 139°40'0 0.3
2014-Nov-18 09:34N 35°28' E 139°40'1 0.9
2014-Nov-18 08:33N 35°27' E 139°41'2 1.5
2014-Nov-18 07:33N 35°27' E 139°39'1 0.7
2014-Nov-18 06:33N 35°27' E 139°39'0 0.0
2014-Nov-18 05:34N 35°27' E 139°39'0 0.0
2014-Nov-18 04:34N 35°27' E 139°39'0 0.0
2014-Nov-18 03:34N 35°27' E 139°39'0 0.0
2014-Nov-18 02:33N 35°27' E 139°39'0 0.0
2014-Nov-18 01:34N 35°27' E 139°39'0 0.0
2014-Nov-18 00:34N 35°27' E 139°39'0 0.0
2014-Nov-17 23:34N 35°27' E 139°39'0 0.0
2014-Nov-17 22:34N 35°27' E 139°39'0 0.0
2014-Nov-17 21:33N 35°27' E 139°39'0 0.0
2014-Nov-17 20:33N 35°27' E 139°39'0 0.0
2014-Nov-17 19:34N 35°27' E 139°39'0 0.0
2014-Nov-17 18:33N 35°27' E 139°39'0 0.0
2014-Nov-17 17:33N 35°27' E 139°39'0 0.0
2014-Nov-17 16:33N 35°27' E 139°39'0 0.0
2014-Nov-17 15:34N 35°27' E 139°39'0 0.0
2014-Nov-17 14:33N 35°27' E 139°39'0 0.0
2014-Nov-17 13:33N 35°27' E 139°39'0 0.0
2014-Nov-17 12:34N 35°27' E 139°39'0 0.0
2014-Nov-17 11:34N 35°27' E 139°39'0 0.0
2014-Nov-17 10:34N 35°27' E 139°39'0 0.0
2014-Nov-17 09:34N 35°27' E 139°39'0 0.0
2014-Nov-17 08:34N 35°27' E 139°39'0 0.0
2014-Nov-17 07:34N 35°27' E 139°39'0 0.0
2014-Nov-17 06:33N 35°27' E 139°39'0 0.1
2014-Nov-17 05:34N 35°27' E 139°39'1 1.0
2014-Nov-17 04:34N 35°28' E 139°39'1 1.1
2014-Nov-17 03:33N 35°27' E 139°39'0 0.0
2014-Nov-17 02:34N 35°27' E 139°39'0 0.0
2014-Nov-17 01:33N 35°27' E 139°39'0 0.0
2014-Nov-17 00:33N 35°27' E 139°39'0 0.1
2014-Nov-16 23:34N 35°27' E 139°39'3 2.9
2014-Nov-16 22:33N 35°26' E 139°42'3 2.9
2014-Nov-16 21:33N 35°27' E 139°39'0 0.0
2014-Nov-16 20:34N 35°27' E 139°39'0 0.0
2014-Nov-16 19:34N 35°27' E 139°39'0 0.0
2014-Nov-16 18:33N 35°27' E 139°39'0 0.0
2014-Nov-16 17:33N 35°27' E 139°39'0 0.0
2014-Nov-16 16:33N 35°27' E 139°39'0 0.0
2014-Nov-16 15:33N 35°27' E 139°39'0 0.0
2014-Nov-16 14:34N 35°27' E 139°39'0 0.0
2014-Nov-16 13:33N 35°27' E 139°39'0 0.0
2014-Nov-16 12:34N 35°27' E 139°39'0 0.0
2014-Nov-16 11:34N 35°27' E 139°39'0 0.0
2014-Nov-16 10:34N 35°27' E 139°39'0 0.0
2014-Nov-16 09:33N 35°27' E 139°39'0 0.0
2014-Nov-16 08:33N 35°27' E 139°39'0 0.0
2014-Nov-16 07:33N 35°27' E 139°39'0 0.0
2014-Nov-16 06:33N 35°27' E 139°39'0 0.0
2014-Nov-16 05:33N 35°27' E 139°39'0 0.0
2014-Nov-16 04:33N 35°27' E 139°39'0 0.0
2014-Nov-16 03:33N 35°27' E 139°39'0 0.0
2014-Nov-16 02:33N 35°27' E 139°39'0 0.0
2014-Nov-16 01:33N 35°27' E 139°39'0 0.0
2014-Nov-16 00:33N 35°27' E 139°39'0 0.0
2014-Nov-15 23:33N 35°27' E 139°39'0 0.0
2014-Nov-15 22:33N 35°27' E 139°39'0 0.0
2014-Nov-15 21:34N 35°27' E 139°39'0 0.0
2014-Nov-15 20:34N 35°27' E 139°39'0 0.0
2014-Nov-15 19:34N 35°27' E 139°39'0 0.0
2014-Nov-15 18:33N 35°27' E 139°39'0 0.0
2014-Nov-15 17:34N 35°27' E 139°39'0 0.0
2014-Nov-15 16:34N 35°27' E 139°39'0 0.0
2014-Nov-15 15:34N 35°27' E 139°39'0 0.0
2014-Nov-15 14:34N 35°27' E 139°39'0 0.0
2014-Nov-15 13:34N 35°27' E 139°39'0 0.0
2014-Nov-15 12:34N 35°27' E 139°39'0 0.0
2014-Nov-15 11:34N 35°27' E 139°39'0 0.0
2014-Nov-15 10:33N 35°27' E 139°39'0 0.0
2014-Nov-15 09:33N 35°27' E 139°39'0 0.0
2014-Nov-15 08:33N 35°27' E 139°39'0 0.0
2014-Nov-15 07:34N 35°27' E 139°39'0 0.0
2014-Nov-15 06:33N 35°27' E 139°39'0 0.0
2014-Nov-15 05:33N 35°27' E 139°39'1 1.0
2014-Nov-15 04:33N 35°27' E 139°40'1 0.7
2014-Nov-15 03:33N 35°27' E 139°40'2 1.6
2014-Nov-15 02:33N 35°27' E 139°39'0 0.0
2014-Nov-15 01:33N 35°27' E 139°39'3 2.9
2014-Nov-15 00:33N 35°27' E 139°42'3 2.8
2014-Nov-14 23:31N 35°29' E 139°44'1 0.8
2014-Nov-14 22:33N 35°28' E 139°45'4 3.5
2014-Nov-14 21:33N 35°27' E 139°41'2 2.0
2014-Nov-14 20:33N 35°27' E 139°39'0 0.2
2014-Nov-14 19:33N 35°27' E 139°39'0 0.0
2014-Nov-14 18:33N 35°27' E 139°39'0 0.0
2014-Nov-14 17:33N 35°27' E 139°39'0 0.0
2014-Nov-14 16:33N 35°27' E 139°39'0 0.0
2014-Nov-14 15:33N 35°27' E 139°39'0 0.0
2014-Nov-14 14:33N 35°27' E 139°39'0 0.0
2014-Nov-14 12:34N 35°27' E 139°39'1 0.7
2014-Nov-14 11:33N 35°27' E 139°39'1 1.1
2014-Nov-14 10:33N 35°27' E 139°41'1 1.2
2014-Nov-14 09:34N 35°27' E 139°42'2 2.2
2014-Nov-14 08:33N 35°27' E 139°44'3 3.4
2014-Nov-14 07:33N 35°25' E 139°41'2 2.0
2014-Nov-14 06:33N 35°27' E 139°39'1 0.9
2014-Nov-14 05:33N 35°27' E 139°40'1 1.1
2014-Nov-14 04:33N 35°26' E 139°42'3 2.7
2014-Nov-14 03:33N 35°27' E 139°39'0 0.0
2014-Nov-14 02:33N 35°27' E 139°39'0 0.0
2014-Nov-14 01:33N 35°27' E 139°39'0 0.0
2014-Nov-14 00:34N 35°27' E 139°39'2 1.9
2014-Nov-13 23:33N 35°27' E 139°41'2 2.1
2014-Nov-13 22:33N 35°26' E 139°43'4 3.8
2014-Nov-13 21:33N 35°27' E 139°39'0 0.3
2014-Nov-13 20:33N 35°27' E 139°39'0 0.0
2014-Nov-13 19:33N 35°27' E 139°39'0 0.0
2014-Nov-13 18:33N 35°27' E 139°39'0 0.0
2014-Nov-13 17:33N 35°27' E 139°39'0 0.0
2014-Nov-13 16:33N 35°27' E 139°39'0 0.0
2014-Nov-13 15:34N 35°27' E 139°39'0 0.0
2014-Nov-13 14:34N 35°27' E 139°39'0 0.0
2014-Nov-13 13:33N 35°27' E 139°39'0 0.0
2014-Nov-13 12:33N 35°27' E 139°39'0 0.0
2014-Nov-13 11:33N 35°27' E 139°39'0 0.0
2014-Nov-13 10:33N 35°27' E 139°39'4 3.7
2014-Nov-13 09:33N 35°24' E 139°41'  
Track history (hours):
 
Tides and Currents Weather Stations Pressure Air Temp Water Temp Dewpoint Dewpoint Depression Visibility Wind Speed Wind Dir Waves Ship Positions

Yamato

Last reported at 2014-Nov-23 08:34 UTC. Time now 2014-Nov-23 08:40 UTC.
Position N 35°27' E 139°40'.

Length 43 m; draft 3.6 m.

Type: Tug. MMSI: 431101141.

Date/timePositionNaut miles runAvg speedWind from/ knotsBaromVisibWave heightAir tempDewpointWater temp
2014-Nov-23 08:34N 35°27' E 139°40'0 0.0
2014-Nov-23 07:34N 35°27' E 139°40'1 1.0
2014-Nov-23 06:34N 35°27' E 139°41'1 1.1
2014-Nov-23 05:34N 35°28' E 139°41'1 1.4
2014-Nov-23 04:34N 35°27' E 139°40'0 0.0
2014-Nov-23 03:33N 35°27' E 139°40'0 0.0
2014-Nov-23 02:34N 35°27' E 139°40'0 0.0
2014-Nov-23 01:33N 35°27' E 139°40'2 2.1
2014-Nov-23 00:34N 35°29' E 139°42'2 2.3
2014-Nov-22 23:33N 35°30' E 139°44'3 3.2
2014-Nov-22 22:34N 35°27' E 139°42'2 1.9
2014-Nov-22 21:34N 35°27' E 139°40'0 0.0
2014-Nov-22 20:34N 35°27' E 139°40'0 0.0
2014-Nov-22 19:34N 35°27' E 139°40'0 0.0
2014-Nov-22 18:34N 35°27' E 139°40'0 0.0
2014-Nov-22 17:34N 35°27' E 139°40'0 0.0
2014-Nov-22 16:34N 35°27' E 139°40'0 0.0
2014-Nov-22 15:34N 35°27' E 139°40'0 0.0
2014-Nov-22 14:34N 35°27' E 139°40'0 0.0
2014-Nov-22 13:34N 35°27' E 139°40'0 0.0
2014-Nov-22 12:34N 35°27' E 139°40'0 0.0
2014-Nov-22 11:33N 35°27' E 139°40'0 0.0
2014-Nov-22 10:33N 35°27' E 139°40'0 0.0
2014-Nov-22 09:34N 35°27' E 139°40'0 0.3
2014-Nov-22 08:34N 35°27' E 139°40'3 2.5
2014-Nov-22 07:33N 35°25' E 139°42'1 1.2
2014-Nov-22 06:34N 35°25' E 139°41'1 0.8
2014-Nov-22 05:34N 35°25' E 139°42'1 0.5
2014-Nov-22 04:33N 35°25' E 139°41'1 1.1
2014-Nov-22 03:33N 35°25' E 139°42'1 1.1
2014-Nov-22 02:33N 35°26' E 139°42'0 0.0
2014-Nov-22 01:34N 35°26' E 139°42'2 1.6
2014-Nov-22 00:34N 35°27' E 139°43'2 2.0
2014-Nov-21 23:34N 35°29' E 139°43'3 2.8
2014-Nov-21 22:33N 35°26' E 139°43'2 1.7
2014-Nov-21 21:34N 35°26' E 139°41'1 1.1
2014-Nov-21 20:34N 35°27' E 139°40'0 0.0
2014-Nov-21 19:34N 35°27' E 139°40'0 0.0
2014-Nov-21 18:34N 35°27' E 139°40'0 0.0
2014-Nov-21 17:34N 35°27' E 139°40'0 0.0
2014-Nov-21 16:33N 35°27' E 139°40'0 0.0
2014-Nov-21 15:34N 35°27' E 139°40'0 0.0
2014-Nov-21 14:34N 35°27' E 139°40'0 0.0
2014-Nov-21 13:34N 35°27' E 139°40'0 0.0
2014-Nov-21 12:33N 35°27' E 139°40'0 0.0
2014-Nov-21 11:33N 35°27' E 139°40'0 0.0
2014-Nov-21 10:34N 35°27' E 139°40'0 0.0
2014-Nov-21 09:33N 35°27' E 139°40'0 0.0
2014-Nov-21 08:33N 35°27' E 139°40'1 0.9
2014-Nov-21 07:34N 35°27' E 139°41'1 0.8
2014-Nov-21 06:33N 35°28' E 139°41'2 1.8
2014-Nov-21 05:33N 35°26' E 139°41'1 1.3
2014-Nov-21 04:33N 35°28' E 139°40'0 0.0
2014-Nov-21 03:34N 35°28' E 139°40'2 1.7
2014-Nov-21 02:34N 35°26' E 139°42'4 3.6
2014-Nov-21 01:33N 35°24' E 139°38'0 0.3
2014-Nov-21 00:34N 35°24' E 139°39'3 3.4
2014-Nov-20 23:34N 35°27' E 139°41'1 0.9
2014-Nov-20 22:34N 35°26' E 139°42'2 1.8
2014-Nov-20 21:34N 35°27' E 139°40'0 0.1
2014-Nov-20 20:34N 35°27' E 139°40'0 0.0
2014-Nov-20 19:33N 35°27' E 139°40'0 0.0
2014-Nov-20 18:34N 35°27' E 139°40'0 0.0
2014-Nov-20 17:34N 35°27' E 139°40'0 0.0
2014-Nov-20 16:33N 35°27' E 139°40'0 0.0
2014-Nov-20 15:34N 35°27' E 139°40'0 0.0
2014-Nov-20 14:34N 35°27' E 139°40'0 0.0
2014-Nov-20 13:33N 35°27' E 139°40'0 0.0
2014-Nov-20 12:34N 35°27' E 139°40'1 0.6
2014-Nov-20 11:34N 35°27' E 139°39'3 2.8
2014-Nov-20 10:34N 35°27' E 139°42'2 2.4
2014-Nov-20 09:34N 35°27' E 139°39'0 0.0
2014-Nov-20 08:34N 35°27' E 139°39'0 0.0
2014-Nov-20 07:34N 35°27' E 139°39'3 2.6
2014-Nov-20 06:33N 35°29' E 139°42'4 4.0
2014-Nov-20 05:34N 35°31' E 139°46'1 1.4
2014-Nov-20 04:33N 35°30' E 139°47'1 0.6
2014-Nov-20 03:33N 35°29' E 139°47'0 0.0
2014-Nov-20 02:26N 35°29' E 139°47'2 1.8
2014-Nov-20 01:33N 35°28' E 139°48'4 3.5
2014-Nov-20 00:33N 35°31' E 139°46'7 1.1
2014-Nov-19 18:16N 35°27' E 139°40'0 0.0
2014-Nov-19 17:34N 35°27' E 139°40'0 0.0
2014-Nov-19 16:34N 35°27' E 139°40'0 0.0
2014-Nov-19 15:33N 35°27' E 139°40'0 0.0
2014-Nov-19 14:34N 35°27' E 139°40'0 0.0
2014-Nov-19 13:34N 35°27' E 139°40'0 0.0
2014-Nov-19 12:34N 35°27' E 139°40'0 0.0
2014-Nov-19 11:34N 35°27' E 139°40'0 0.0
2014-Nov-19 10:34N 35°27' E 139°40'0 0.0
2014-Nov-19 09:34N 35°27' E 139°40'0 0.0
2014-Nov-19 08:33N 35°27' E 139°40'0 0.0
2014-Nov-19 07:33N 35°27' E 139°40'0 0.0
2014-Nov-19 06:33N 35°27' E 139°40'0 0.0
2014-Nov-19 05:34N 35°27' E 139°40'0 0.0
2014-Nov-19 04:33N 35°27' E 139°40'0 0.0
2014-Nov-19 03:33N 35°27' E 139°40'0 0.0
2014-Nov-19 02:34N 35°27' E 139°40'0 0.0
2014-Nov-19 01:34N 35°27' E 139°40'0 0.0
2014-Nov-19 00:34N 35°27' E 139°40'0 0.0
2014-Nov-18 23:34N 35°27' E 139°40'3 3.4
2014-Nov-18 22:33N 35°29' E 139°43'2 2.4
2014-Nov-18 21:33N 35°27' E 139°43'0 0.2
2014-Nov-18 20:33N 35°27' E 139°43'1 1.4
2014-Nov-18 19:34N 35°28' E 139°41'1 0.6
2014-Nov-18 18:34N 35°28' E 139°42'0 0.0
2014-Nov-18 17:34N 35°28' E 139°42'0 0.0
2014-Nov-18 16:33N 35°28' E 139°42'0 0.0
2014-Nov-18 15:33N 35°28' E 139°42'0 0.0
2014-Nov-18 14:33N 35°28' E 139°42'0 0.0
2014-Nov-18 13:34N 35°28' E 139°42'0 0.0
2014-Nov-18 12:34N 35°28' E 139°42'2 1.9
2014-Nov-18 11:33N 35°29' E 139°43'3 2.8
2014-Nov-18 10:34N 35°28' E 139°40'0 0.3
2014-Nov-18 09:34N 35°28' E 139°40'1 0.9
2014-Nov-18 08:33N 35°27' E 139°41'2 1.5
2014-Nov-18 07:33N 35°27' E 139°39'1 0.7
2014-Nov-18 06:33N 35°27' E 139°39'0 0.0
2014-Nov-18 05:34N 35°27' E 139°39'0 0.0
2014-Nov-18 04:34N 35°27' E 139°39'0 0.0
2014-Nov-18 03:34N 35°27' E 139°39'0 0.0
2014-Nov-18 02:33N 35°27' E 139°39'0 0.0
2014-Nov-18 01:34N 35°27' E 139°39'0 0.0
2014-Nov-18 00:34N 35°27' E 139°39'0 0.0
2014-Nov-17 23:34N 35°27' E 139°39'0 0.0
2014-Nov-17 22:34N 35°27' E 139°39'0 0.0
2014-Nov-17 21:33N 35°27' E 139°39'0 0.0
2014-Nov-17 20:33N 35°27' E 139°39'0 0.0
2014-Nov-17 19:34N 35°27' E 139°39'0 0.0
2014-Nov-17 18:33N 35°27' E 139°39'0 0.0
2014-Nov-17 17:33N 35°27' E 139°39'0 0.0
2014-Nov-17 16:33N 35°27' E 139°39'0 0.0
2014-Nov-17 15:34N 35°27' E 139°39'0 0.0
2014-Nov-17 14:33N 35°27' E 139°39'0 0.0
2014-Nov-17 13:33N 35°27' E 139°39'0 0.0
2014-Nov-17 12:34N 35°27' E 139°39'0 0.0
2014-Nov-17 11:34N 35°27' E 139°39'0 0.0
2014-Nov-17 10:34N 35°27' E 139°39'0 0.0
2014-Nov-17 09:34N 35°27' E 139°39'0 0.0
2014-Nov-17 08:34N 35°27' E 139°39'0 0.0
2014-Nov-17 07:34N 35°27' E 139°39'0 0.0
2014-Nov-17 06:33N 35°27' E 139°39'0 0.1
2014-Nov-17 05:34N 35°27' E 139°39'1 1.0
2014-Nov-17 04:34N 35°28' E 139°39'1 1.1
2014-Nov-17 03:33N 35°27' E 139°39'0 0.0
2014-Nov-17 02:34N 35°27' E 139°39'0 0.0
2014-Nov-17 01:33N 35°27' E 139°39'0 0.0
2014-Nov-17 00:33N 35°27' E 139°39'0 0.1
2014-Nov-16 23:34N 35°27' E 139°39'3 2.9
2014-Nov-16 22:33N 35°26' E 139°42'3 2.9
2014-Nov-16 21:33N 35°27' E 139°39'0 0.0
2014-Nov-16 20:34N 35°27' E 139°39'0 0.0
2014-Nov-16 19:34N 35°27' E 139°39'0 0.0
2014-Nov-16 18:33N 35°27' E 139°39'0 0.0
2014-Nov-16 17:33N 35°27' E 139°39'0 0.0
2014-Nov-16 16:33N 35°27' E 139°39'0 0.0
2014-Nov-16 15:33N 35°27' E 139°39'0 0.0
2014-Nov-16 14:34N 35°27' E 139°39'0 0.0
2014-Nov-16 13:33N 35°27' E 139°39'0 0.0
2014-Nov-16 12:34N 35°27' E 139°39'0 0.0
2014-Nov-16 11:34N 35°27' E 139°39'0 0.0
2014-Nov-16 10:34N 35°27' E 139°39'0 0.0
2014-Nov-16 09:33N 35°27' E 139°39'0 0.0
2014-Nov-16 08:33N 35°27' E 139°39'0 0.0
2014-Nov-16 07:33N 35°27' E 139°39'0 0.0
2014-Nov-16 06:33N 35°27' E 139°39'0 0.0
2014-Nov-16 05:33N 35°27' E 139°39'0 0.0
2014-Nov-16 04:33N 35°27' E 139°39'0 0.0
2014-Nov-16 03:33N 35°27' E 139°39'0 0.0
2014-Nov-16 02:33N 35°27' E 139°39'0 0.0
2014-Nov-16 01:33N 35°27' E 139°39'0 0.0
2014-Nov-16 00:33N 35°27' E 139°39'0 0.0
2014-Nov-15 23:33N 35°27' E 139°39'0 0.0
2014-Nov-15 22:33N 35°27' E 139°39'0 0.0
2014-Nov-15 21:34N 35°27' E 139°39'0 0.0
2014-Nov-15 20:34N 35°27' E 139°39'0 0.0
2014-Nov-15 19:34N 35°27' E 139°39'0 0.0
2014-Nov-15 18:33N 35°27' E 139°39'0 0.0
2014-Nov-15 17:34N 35°27' E 139°39'0 0.0
2014-Nov-15 16:34N 35°27' E 139°39'0 0.0
2014-Nov-15 15:34N 35°27' E 139°39'0 0.0
2014-Nov-15 14:34N 35°27' E 139°39'0 0.0
2014-Nov-15 13:34N 35°27' E 139°39'0 0.0
2014-Nov-15 12:34N 35°27' E 139°39'0 0.0
2014-Nov-15 11:34N 35°27' E 139°39'0 0.0
2014-Nov-15 10:33N 35°27' E 139°39'0 0.0
2014-Nov-15 09:33N 35°27' E 139°39'0 0.0
2014-Nov-15 08:33N 35°27' E 139°39'0 0.0
2014-Nov-15 07:34N 35°27' E 139°39'0 0.0
2014-Nov-15 06:33N 35°27' E 139°39'0 0.0
2014-Nov-15 05:33N 35°27' E 139°39'1 1.0
2014-Nov-15 04:33N 35°27' E 139°40'1 0.7
2014-Nov-15 03:33N 35°27' E 139°40'2 1.6
2014-Nov-15 02:33N 35°27' E 139°39'0 0.0
2014-Nov-15 01:33N 35°27' E 139°39'3 2.9
2014-Nov-15 00:33N 35°27' E 139°42'3 2.8
2014-Nov-14 23:31N 35°29' E 139°44'1 0.8
2014-Nov-14 22:33N 35°28' E 139°45'4 3.5
2014-Nov-14 21:33N 35°27' E 139°41'2 2.0
2014-Nov-14 20:33N 35°27' E 139°39'0 0.2
2014-Nov-14 19:33N 35°27' E 139°39'0 0.0
2014-Nov-14 18:33N 35°27' E 139°39'0 0.0
2014-Nov-14 17:33N 35°27' E 139°39'0 0.0
2014-Nov-14 16:33N 35°27' E 139°39'0 0.0
2014-Nov-14 15:33N 35°27' E 139°39'0 0.0
2014-Nov-14 14:33N 35°27' E 139°39'0 0.0
2014-Nov-14 12:34N 35°27' E 139°39'1 0.7
2014-Nov-14 11:33N 35°27' E 139°39'1 1.1
2014-Nov-14 10:33N 35°27' E 139°41'1 1.2
2014-Nov-14 09:34N 35°27' E 139°42'2 2.2
2014-Nov-14 08:33N 35°27' E 139°44'3 3.4
2014-Nov-14 07:33N 35°25' E 139°41'2 2.0
2014-Nov-14 06:33N 35°27' E 139°39'1 0.9
2014-Nov-14 05:33N 35°27' E 139°40'1 1.1
2014-Nov-14 04:33N 35°26' E 139°42'3 2.7
2014-Nov-14 03:33N 35°27' E 139°39'0 0.0
2014-Nov-14 02:33N 35°27' E 139°39'0 0.0
2014-Nov-14 01:33N 35°27' E 139°39'0 0.0
2014-Nov-14 00:34N 35°27' E 139°39'2 1.9
2014-Nov-13 23:33N 35°27' E 139°41'2 2.1
2014-Nov-13 22:33N 35°26' E 139°43'4 3.8
2014-Nov-13 21:33N 35°27' E 139°39'0 0.3
2014-Nov-13 20:33N 35°27' E 139°39'0 0.0
2014-Nov-13 19:33N 35°27' E 139°39'0 0.0
2014-Nov-13 18:33N 35°27' E 139°39'0 0.0
2014-Nov-13 17:33N 35°27' E 139°39'0 0.0
2014-Nov-13 16:33N 35°27' E 139°39'0 0.0
2014-Nov-13 15:34N 35°27' E 139°39'0 0.0
2014-Nov-13 14:34N 35°27' E 139°39'0 0.0
2014-Nov-13 13:33N 35°27' E 139°39'0 0.0
2014-Nov-13 12:33N 35°27' E 139°39'0 0.0
2014-Nov-13 11:33N 35°27' E 139°39'0 0.0
2014-Nov-13 10:33N 35°27' E 139°39'4 3.7
2014-Nov-13 09:33N 35°24' E 139°41'  

Dump ship's entire track history